Station History

Weather Underground - logo

Station Historical Data
Daily Summary for October 11, 2018 Units:  Metric    English   Both
« Previous Day
Next Day »
Daily Weekly Monthly Yearly Custom
  High: Low: Average:
Temperature: 23.3 °C 11.9 °C 17.1 °C
Dew Point: 12.8 °C 9.9 °C 11.4 °C
Humidity: 88 % 48 % 71 %
Wind Speed: 8 km/h 0 km/h 1.3 km/h
Wind Gust: 4.5 km/h - -
Wind:- - SW
Pressure: 1011.4 hPa 1007.7 hPa -
Precipitation: 0 mm    
Historical Graphs
 
 
Tabular Data for October 11, 2018
Time Temperature Dew Point Pressure Wind Wind Speed Wind Gust Humidity Rainfall Rate (Hourly)
00:04 13.8 °C 10.8 °C 1008.7 hPa SE 1.9 km/h   82 % 0 mm
00:09 13.7 °C 10.7 °C 1009 hPa Calm     82 % 0 mm
00:14 13.6 °C 10.6 °C 1009 hPa Calm     82 % 0 mm
00:19 13.5 °C 10.7 °C 1009 hPa Calm     83 % 0 mm
00:24 13.4 °C 10.6 °C 1009 hPa Calm     83 % 0 mm
00:29 13.3 °C 10.4 °C 1009 hPa Calm     83 % 0 mm
00:34 13.2 °C 10.5 °C 1009 hPa Calm     84 % 0 mm
00:39 13.1 °C 10.4 °C 1009 hPa SE 1.6 km/h 0.2 km/h 84 % 0 mm
00:44 13.1 °C 10.4 °C 1009 hPa Calm     84 % 0 mm
00:49 13.1 °C 10.4 °C 1009 hPa SE 1.9 km/h   84 % 0 mm
00:54 13 °C 10.3 °C 1009 hPa Calm     84 % 0 mm
00:59 13 °C 10.3 °C 1009 hPa SE 1.9 km/h   84 % 0 mm
01:04 13 °C 10.3 °C 1009 hPa Calm   0.2 km/h 84 % 0 mm
01:09 12.9 °C 10.3 °C 1009 hPa ESE 1.9 km/h   84 % 0 mm
01:14 13 °C 10.3 °C 1009 hPa Calm     84 % 0 mm
01:19 13 °C 10.3 °C 1009 hPa SE 1.9 km/h   84 % 0 mm
01:24 13 °C 10.3 °C 1009 hPa SE 1.9 km/h   84 % 0 mm
01:29 13.1 °C 10.4 °C 1009 hPa Calm     84 % 0 mm
01:34 13.1 °C 10.4 °C 1009 hPa Calm   0.2 km/h 84 % 0 mm
01:39 13 °C 10.3 °C 1009 hPa Calm   0.2 km/h 84 % 0 mm
01:44 13 °C 10.3 °C 1009 hPa SE 1.9 km/h 0.6 km/h 84 % 0 mm
01:49 12.9 °C 10.3 °C 1009 hPa Calm     84 % 0 mm
01:54 13 °C 10.3 °C 1009 hPa Calm     84 % 0 mm
01:59 12.9 °C 10.3 °C 1009 hPa ESE 1.9 km/h   84 % 0 mm
02:04 12.9 °C 10.3 °C 1009 hPa Calm     84 % 0 mm
02:09 12.9 °C 10.3 °C 1009 hPa Calm     84 % 0 mm
02:14 12.8 °C 10.2 °C 1009 hPa Calm     84 % 0 mm
02:19 12.8 °C 10.3 °C 1009 hPa Calm     85 % 0 mm
02:24 12.7 °C 10.3 °C 1009 hPa Calm     85 % 0 mm
02:29 12.6 °C 10.2 °C 1009 hPa Calm     85 % 0 mm
02:34 12.6 °C 10.1 °C 1009 hPa Calm     85 % 0 mm
02:39 12.6 °C 10.1 °C 1009 hPa Calm     85 % 0 mm
02:44 12.5 °C 10.1 °C 1009 hPa Calm     85 % 0 mm
02:49 12.4 °C 10.2 °C 1008.7 hPa Calm     86 % 0 mm
02:54 12.4 °C 10.1 °C 1009 hPa Calm     86 % 0 mm
02:59 12.4 °C 10.1 °C 1008.7 hPa ESE 1.9 km/h   86 % 0 mm
03:04 12.4 °C 10.1 °C 1008.7 hPa Calm     86 % 0 mm
03:09 12.4 °C 10.1 °C 1008.7 hPa ESE 1.9 km/h   86 % 0 mm
03:14 12.4 °C 10.1 °C 1008.7 hPa ESE 1.9 km/h   86 % 0 mm
03:19 12.4 °C 10.1 °C 1008.7 hPa Calm     86 % 0 mm
03:24 12.4 °C 10.1 °C 1008.7 hPa Calm     86 % 0 mm
03:29 12.4 °C 10.1 °C 1008.7 hPa Calm     86 % 0 mm
03:34 12.3 °C 10.1 °C 1008.7 hPa SSE 1.9 km/h   86 % 0 mm
03:39 12.3 °C 10 °C 1008.7 hPa Calm     86 % 0 mm
03:44 12.3 °C 10 °C 1008.7 hPa Calm     86 % 0 mm
03:49 12.3 °C 10 °C 1008.7 hPa Calm     86 % 0 mm
03:54 12.2 °C 9.9 °C 1008.7 hPa Calm     86 % 0 mm
03:59 12.1 °C 10 °C 1008.7 hPa SE 1.9 km/h   87 % 0 mm
04:04 12.1 °C 9.9 °C 1008.7 hPa SE 1.9 km/h 0.2 km/h 87 % 0 mm
04:09 12.1 °C 9.9 °C 1008.7 hPa Calm     87 % 0 mm
04:14 12.1 °C 9.9 °C 1008.7 hPa East 1.9 km/h 0.3 km/h 87 % 0 mm
04:19 12.2 °C 10.1 °C 1008.7 hPa ESE 1.9 km/h   87 % 0 mm
04:24 12.2 °C 10.1 °C 1008.7 hPa ESE 1.9 km/h   87 % 0 mm
04:29 12.1 °C 10 °C 1008.7 hPa Calm     87 % 0 mm
04:34 12.1 °C 9.9 °C 1008.7 hPa Calm     87 % 0 mm
04:39 12.1 °C 9.9 °C 1008.7 hPa Calm     87 % 0 mm
04:44 12 °C 9.9 °C 1008.7 hPa Calm     87 % 0 mm
04:49 12 °C 9.9 °C 1008.7 hPa Calm     87 % 0 mm
04:54 11.9 °C 10 °C 1009 hPa Calm     88 % 0 mm
04:59 12.1 °C 10.1 °C 1009 hPa SE 1.6 km/h   88 % 0 mm
05:04 12.2 °C 10.3 °C 1009 hPa Calm     88 % 0 mm
05:09 12.3 °C 10.2 °C 1009 hPa Calm   0.2 km/h 87 % 0 mm
05:14 12.4 °C 10.3 °C 1009 hPa Calm     87 % 0 mm
05:19 12.4 °C 10.3 °C 1009 hPa SE 1.9 km/h 0.3 km/h 87 % 0 mm
05:24 12.4 °C 10.3 °C 1009 hPa Calm     87 % 0 mm
05:29 12.3 °C 10.2 °C 1009 hPa SE 1.9 km/h   87 % 0 mm
05:34 12.3 °C 10.2 °C 1009 hPa Calm     87 % 0 mm
05:39 12.2 °C 10.1 °C 1009 hPa Calm     87 % 0 mm
05:44 12.2 °C 10.1 °C 1009 hPa SE 1.9 km/h   87 % 0 mm
05:49 12.3 °C 10.2 °C 1009.4 hPa ESE 1.9 km/h   87 % 0 mm
05:54 12.3 °C 10.2 °C 1009.4 hPa SE 1.9 km/h 0.2 km/h 87 % 0 mm
05:59 12.4 °C 10.3 °C 1009.4 hPa Calm     87 % 0 mm
06:04 12.4 °C 10.3 °C 1009.4 hPa Calm     87 % 0 mm
06:09 12.4 °C 10.3 °C 1009.4 hPa Calm     87 % 0 mm
06:14 12.4 °C 10.3 °C 1009.4 hPa Calm     87 % 0 mm
06:19 12.3 °C 10.2 °C 1009.7 hPa Calm     87 % 0 mm
06:24 12.3 °C 10.2 °C 1009.7 hPa Calm   0.2 km/h 87 % 0 mm
06:29 12.3 °C 10.2 °C 1009.7 hPa Calm     87 % 0 mm
06:34 12.3 °C 10.2 °C 1010 hPa Calm     87 % 0 mm
06:39 12.3 °C 10.2 °C 1010 hPa Calm     87 % 0 mm
06:44 12.3 °C 10.2 °C 1010 hPa Calm     87 % 0 mm
06:49 12.3 °C 10.2 °C 1010 hPa Calm     87 % 0 mm
06:54 12.3 °C 10.2 °C 1010 hPa Calm     87 % 0 mm
06:59 12.3 °C 10.2 °C 1010 hPa Calm     87 % 0 mm
07:04 12.4 °C 10.3 °C 1010.4 hPa Calm     87 % 0 mm
07:09 12.4 °C 10.3 °C 1010.4 hPa Calm     87 % 0 mm
07:14 12.5 °C 10.4 °C 1010.4 hPa Calm     87 % 0 mm
07:19 12.6 °C 10.3 °C 1010.4 hPa Calm     86 % 0 mm
07:24 12.7 °C 10.4 °C 1010.4 hPa Calm     86 % 0 mm
07:29 12.8 °C 10.5 °C 1010.4 hPa ESE 1.9 km/h   86 % 0 mm
07:34 12.9 °C 10.7 °C 1010.4 hPa SE 1.9 km/h   86 % 0 mm
07:39 13.2 °C 10.7 °C 1010.4 hPa Calm     85 % 0 mm
07:44 13.3 °C 10.9 °C 1010.7 hPa Calm     85 % 0 mm
07:49 13.6 °C 10.9 °C 1010.7 hPa Calm     84 % 0 mm
07:54 13.8 °C 11.1 °C 1010.7 hPa Calm     84 % 0 mm
07:59 13.9 °C 11.1 °C 1010.7 hPa SE 1.9 km/h 0.2 km/h 83 % 0 mm
08:04 14.2 °C 11.3 °C 1010.7 hPa Calm     83 % 0 mm
08:09 14.4 °C 11.3 °C 1011.1 hPa Calm     82 % 0 mm
08:14 14.6 °C 11.6 °C 1011.1 hPa Calm     82 % 0 mm
08:19 14.8 °C 11.8 °C 1011.1 hPa Calm     82 % 0 mm
08:24 15 °C 11.9 °C 1011.1 hPa Calm     82 % 0 mm
08:29 15.2 °C 12 °C 1011.1 hPa Calm     81 % 0 mm
08:34 15.4 °C 11.9 °C 1011.1 hPa Calm     80 % 0 mm
08:39 15.6 °C 11.9 °C 1011.1 hPa Calm     79 % 0 mm
08:44 15.7 °C 11.9 °C 1011.4 hPa Calm     78 % 0 mm
08:49 15.9 °C 12.1 °C 1011.4 hPa Calm   0.2 km/h 78 % 0 mm
08:54 16 °C 11.9 °C 1011.4 hPa SSE 1.9 km/h   77 % 0 mm
08:59 16.1 °C 11.9 °C 1011.4 hPa Calm     76 % 0 mm
09:04 16.2 °C 11.9 °C 1011.4 hPa Calm     76 % 0 mm
09:09 16.3 °C 12.1 °C 1011.4 hPa Calm     76 % 0 mm
09:14 16.4 °C 12.2 °C 1011.4 hPa Calm     76 % 0 mm
09:19 16.6 °C 12.1 °C 1011.4 hPa Calm     75 % 0 mm
09:24 16.7 °C 12.2 °C 1011.4 hPa SE 1.6 km/h 0.3 km/h 75 % 0 mm
09:29 16.8 °C 12.2 °C 1011.4 hPa SE 1.9 km/h 0.2 km/h 74 % 0 mm
09:34 17 °C 12.1 °C 1011.4 hPa SSE 3.7 km/h 0.2 km/h 73 % 0 mm
09:39 17.2 °C 12.1 °C 1011.4 hPa ESE 3.7 km/h   72 % 0 mm
09:44 17.4 °C 12.3 °C 1011.4 hPa SSE 1.9 km/h 0.2 km/h 72 % 0 mm
09:49 17.7 °C 11.9 °C 1011.4 hPa Calm     69 % 0 mm
09:54 18 °C 12 °C 1011.4 hPa South 3.7 km/h 0.3 km/h 68 % 0 mm
09:59 18.2 °C 11.7 °C 1011.4 hPa ESE 5.6 km/h 0.5 km/h 66 % 0 mm
10:04 18.4 °C 11.7 °C 1011.4 hPa Calm     65 % 0 mm
10:09 18.8 °C 11.9 °C 1011.4 hPa ESE 1.9 km/h 0.5 km/h 64 % 0 mm
10:14 19.3 °C 12.1 °C 1011.4 hPa East 1.9 km/h 0.2 km/h 63 % 0 mm
10:19 19.7 °C 11.9 °C 1011.4 hPa East 3.7 km/h 0.3 km/h 61 % 0 mm
10:24 19.9 °C 12.2 °C 1011.4 hPa Calm     61 % 0 mm
10:29 20.1 °C 11.6 °C 1011.4 hPa Calm   0.2 km/h 58 % 0 mm
10:34 20.3 °C 12 °C 1011.4 hPa SSE 3.7 km/h   59 % 0 mm
10:39 20.6 °C 11.5 °C 1011.4 hPa Calm   0.2 km/h 56 % 0 mm
10:44 20.7 °C 11.6 °C 1011.4 hPa South 3.7 km/h 0.2 km/h 56 % 0 mm
10:49 20.4 °C 11.1 °C 1011.4 hPa ESE 1.9 km/h   55 % 0 mm
10:54 20.6 °C 11.4 °C 1011.4 hPa East 3.7 km/h 0.5 km/h 56 % 0 mm
10:59 20.8 °C 11.4 °C 1011.4 hPa ESE 1.9 km/h 0.5 km/h 55 % 0 mm
11:04 20.9 °C 11.5 °C 1011.1 hPa SE 1.9 km/h 0.2 km/h 55 % 0 mm
11:09 21.1 °C 11.4 °C 1011.1 hPa NNW 3.7 km/h 1.6 km/h 54 % 0 mm
11:14 20.8 °C 11.2 °C 1011.1 hPa NW 1.9 km/h 0.5 km/h 54 % 0 mm
11:19 20.8 °C 10.9 °C 1011.1 hPa NW 3.7 km/h 1.9 km/h 53 % 0 mm
11:24 20.8 °C 11.1 °C 1011.1 hPa NNW 3.7 km/h 0.3 km/h 54 % 0 mm
11:29 21 °C 11.9 °C 1011.1 hPa Calm   0.3 km/h 56 % 0 mm
11:34 21.3 °C 11.6 °C 1011.1 hPa West 1.9 km/h   54 % 0 mm
11:39 21.4 °C 11.4 °C 1010.7 hPa SW 3.7 km/h   53 % 0 mm
11:44 21.4 °C 11.7 °C 1010.7 hPa NW 3.7 km/h 0.5 km/h 54 % 0 mm
11:49 21.4 °C 12 °C 1010.7 hPa Calm     55 % 0 mm
11:54 21.6 °C 11.3 °C 1010.7 hPa WNW 4.8 km/h 1.8 km/h 52 % 0 mm
11:59 21.8 °C 12.1 °C 1010.7 hPa Calm   0.2 km/h 54 % 0 mm
12:04 21.8 °C 11.6 °C 1010.7 hPa NW 3.7 km/h 1.4 km/h 52 % 0 mm
12:09 21.7 °C 11.7 °C 1010.4 hPa SSW 1.9 km/h   53 % 0 mm
12:14 21.9 °C 11.6 °C 1010.4 hPa NNW 5.6 km/h 3.1 km/h 52 % 0 mm
12:19 22 °C 11.7 °C 1010.4 hPa WNW 3.7 km/h 2.3 km/h 52 % 0 mm
12:24 21.9 °C 11.6 °C 1010.4 hPa WNW 1.9 km/h 0.2 km/h 52 % 0 mm
12:29 22.1 °C 11.7 °C 1010 hPa West 5.6 km/h 1.8 km/h 52 % 0 mm
12:34 22.3 °C 11.9 °C 1010 hPa WNW 1.6 km/h   52 % 0 mm
12:39 22.2 °C 11.3 °C 1010 hPa NW 1.9 km/h 2.1 km/h 50 % 0 mm
12:44 22.2 °C 11.6 °C 1010 hPa WSW 3.7 km/h 1.1 km/h 51 % 0 mm
12:49 22.3 °C 12 °C 1009.7 hPa West 3.2 km/h 1.8 km/h 52 % 0 mm
12:54 22.3 °C 11.4 °C 1009.7 hPa NW 1.9 km/h   50 % 0 mm
12:59 22.4 °C 11.4 °C 1009.7 hPa NNW 3.7 km/h 0.3 km/h 50 % 0 mm
13:04 22.4 °C 12.1 °C 1009.7 hPa NW 1.9 km/h 1.9 km/h 52 % 0 mm
13:09 22.2 °C 11.9 °C 1009.4 hPa Calm     52 % 0 mm
13:14 22.4 °C 12.1 °C 1009.4 hPa East 5.6 km/h 0.5 km/h 52 % 0 mm
13:19 22.6 °C 11.9 °C 1009.4 hPa WSW 3.7 km/h   51 % 0 mm
13:24 22.8 °C 12.1 °C 1009.4 hPa SSE 5.6 km/h   51 % 0 mm
13:29 22.8 °C 11.9 °C 1009 hPa NNE 3.7 km/h 1.1 km/h 50 % 0 mm
13:34 22.9 °C 12.6 °C 1009 hPa SSW 3.7 km/h 1.9 km/h 52 % 0 mm
13:39 23.2 °C 12.5 °C 1009 hPa NNW 5.6 km/h 1.6 km/h 51 % 0 mm
13:44 23.1 °C 12.1 °C 1009 hPa NW 4.8 km/h 1.3 km/h 50 % 0 mm
13:49 22.9 °C 11.9 °C 1008.7 hPa NNW 5.6 km/h 0.2 km/h 50 % 0 mm
13:54 22.9 °C 12.2 °C 1008.7 hPa Calm     51 % 0 mm
13:59 23 °C 12 °C 1008.7 hPa WNW 4.8 km/h 2.4 km/h 50 % 0 mm
14:04 23.1 °C 12.4 °C 1008.7 hPa NW 1.9 km/h 0.6 km/h 51 % 0 mm
14:09 23.3 °C 12.3 °C 1008.7 hPa WNW 1.9 km/h 1.3 km/h 50 % 0 mm
14:14 23.1 °C 11.8 °C 1008.7 hPa NW 5.6 km/h 4.5 km/h 49 % 0 mm
14:19 22.9 °C 11.9 °C 1008.4 hPa WNW 3.7 km/h 0.5 km/h 50 % 0 mm
14:24 22.8 °C 12.2 °C 1008.4 hPa WNW 1.9 km/h 0.5 km/h 51 % 0 mm
14:29 22.9 °C 11.7 °C 1008.4 hPa NW 1.6 km/h 0.5 km/h 49 % 0 mm
14:34 22.9 °C 12.3 °C 1008.4 hPa NNW 5.6 km/h 2.1 km/h 51 % 0 mm
14:39 22.9 °C 11.9 °C 1008 hPa NW 1.9 km/h 1.4 km/h 50 % 0 mm
14:44 22.9 °C 11.9 °C 1008 hPa NW 3.7 km/h 1.4 km/h 50 % 0 mm
14:49 23.1 °C 12.1 °C 1008 hPa NW 3.7 km/h 1.9 km/h 50 % 0 mm
14:54 23.2 °C 11.8 °C 1008 hPa West 3.7 km/h 1.6 km/h 49 % 0 mm
14:59 23.2 °C 11.8 °C 1008 hPa WNW 1.9 km/h 0.8 km/h 49 % 0 mm
15:04 23.1 °C 11.8 °C 1008 hPa NW 5.6 km/h 3.9 km/h 49 % 0 mm
15:09 22.9 °C 11.7 °C 1008 hPa North 6.4 km/h 2.1 km/h 49 % 0 mm
15:14 23 °C 11.7 °C 1008 hPa WNW 5.6 km/h 2.7 km/h 49 % 0 mm
15:19 23 °C 11.7 °C 1008 hPa Calm     49 % 0 mm
15:24 23.1 °C 11.5 °C 1008 hPa West 1.6 km/h   48 % 0 mm
15:29 23 °C 12 °C 1008 hPa NNW 3.7 km/h 2.7 km/h 50 % 0 mm
15:34 23.1 °C 11.8 °C 1008 hPa WNW 3.2 km/h 2.4 km/h 49 % 0 mm
15:39 23.1 °C 11.8 °C 1008 hPa Calm     49 % 0 mm
15:44 23.2 °C 12.2 °C 1008 hPa NW 4.8 km/h 2.4 km/h 50 % 0 mm
15:49 23.1 °C 12.1 °C 1008 hPa WNW 5.6 km/h 2.4 km/h 50 % 0 mm
15:54 23 °C 11.7 °C 1007.7 hPa NW 3.7 km/h 1.8 km/h 49 % 0 mm
15:59 22.9 °C 11.9 °C 1007.7 hPa NW 4.8 km/h 1.8 km/h 50 % 0 mm
16:04 22.8 °C 12.1 °C 1008 hPa NNW 3.7 km/h 1.3 km/h 51 % 0 mm
16:09 22.8 °C 12.4 °C 1008 hPa NW 7.4 km/h 2.4 km/h 52 % 0 mm
16:14 22.7 °C 12.1 °C 1007.7 hPa NW 3.7 km/h 0.8 km/h 51 % 0 mm
16:19 22.7 °C 12 °C 1008 hPa WSW 5.6 km/h 0.6 km/h 51 % 0 mm
16:24 22.7 °C 12.3 °C 1007.7 hPa North 8 km/h 2.3 km/h 52 % 0 mm
16:29 22.7 °C 12.3 °C 1007.7 hPa NW 1.9 km/h   52 % 0 mm
16:34 22.6 °C 12.3 °C 1008 hPa NW 7.4 km/h 2.6 km/h 52 % 0 mm
16:39 22.6 °C 12.2 °C 1007.7 hPa NW 3.7 km/h 0.8 km/h 52 % 0 mm
16:44 22.6 °C 12.6 °C 1007.7 hPa WNW 3.7 km/h 0.3 km/h 53 % 0 mm
16:49 22.6 °C 12.2 °C 1008 hPa West 1.9 km/h 0.2 km/h 52 % 0 mm
16:54 22.4 °C 12.4 °C 1007.7 hPa Calm     53 % 0 mm
16:59 22.3 °C 12 °C 1008 hPa NNW 3.7 km/h 2.3 km/h 52 % 0 mm
17:04 22.3 °C 12.2 °C 1008 hPa Calm   0.8 km/h 53 % 0 mm
17:09 22.3 °C 12.5 °C 1008 hPa WNW 5.6 km/h 1.1 km/h 54 % 0 mm
17:14 22.2 °C 12.4 °C 1007.7 hPa NW 3.2 km/h 1.1 km/h 54 % 0 mm
17:19 22.2 °C 12.1 °C 1008 hPa NW 3.7 km/h 2.4 km/h 53 % 0 mm
17:24 22.1 °C 12.3 °C 1008 hPa NW 1.9 km/h   54 % 0 mm
17:29 21.9 °C 12.2 °C 1008 hPa West 1.9 km/h 0.5 km/h 54 % 0 mm
17:34 21.9 °C 12.4 °C 1008 hPa Calm     55 % 0 mm
17:39 21.8 °C 12.3 °C 1008 hPa Calm     55 % 0 mm
17:44 21.7 °C 12.2 °C 1008 hPa Calm     55 % 0 mm
17:49 21.6 °C 12.4 °C 1008 hPa Calm   0.2 km/h 56 % 0 mm
17:54 21.4 °C 12.3 °C 1008 hPa Calm   0.2 km/h 56 % 0 mm
17:59 21.3 °C 12.4 °C 1008 hPa Calm     57 % 0 mm
18:04 21.2 °C 12.6 °C 1008 hPa Calm     58 % 0 mm
18:09 21 °C 12.4 °C 1008 hPa Calm     58 % 0 mm
18:14 20.8 °C 12.5 °C 1008 hPa Calm     59 % 0 mm
18:19 20.7 °C 12.4 °C 1008 hPa Calm     59 % 0 mm
18:24 20.5 °C 12.4 °C 1008 hPa Calm     60 % 0 mm
18:29 20.3 °C 12.8 °C 1008 hPa Calm     62 % 0 mm
18:34 20.1 °C 12.6 °C 1008 hPa Calm     62 % 0 mm
18:39 19.9 °C 12.4 °C 1008 hPa Calm     62 % 0 mm
18:44 19.9 °C 12.4 °C 1008 hPa Calm     62 % 0 mm
18:49 19.8 °C 12.3 °C 1008 hPa Calm     62 % 0 mm
18:54 19.8 °C 12.3 °C 1008 hPa Calm     62 % 0 mm
18:59 19.7 °C 12.7 °C 1008 hPa Calm     64 % 0 mm
19:04 19.4 °C 12.7 °C 1008 hPa Calm     65 % 0 mm
19:09 19.2 °C 12.5 °C 1008.4 hPa Calm     65 % 0 mm
19:14 19 °C 12.5 °C 1008.4 hPa Calm     66 % 0 mm
19:19 18.8 °C 12.5 °C 1008.4 hPa Calm     67 % 0 mm
19:24 18.7 °C 12.7 °C 1008.7 hPa Calm     68 % 0 mm
19:29 18.6 °C 12.6 °C 1008.7 hPa Calm     68 % 0 mm
19:34 18.4 °C 12.4 °C 1008.7 hPa Calm     68 % 0 mm
19:39 18.2 °C 12.7 °C 1008.7 hPa Calm     70 % 0 mm
19:44 18.1 °C 12.7 °C 1008.7 hPa Calm     71 % 0 mm
19:49 17.9 °C 12.6 °C 1008.7 hPa Calm     71 % 0 mm
19:54 17.8 °C 12.7 °C 1008.7 hPa Calm     72 % 0 mm
19:59 17.7 °C 12.6 °C 1008.7 hPa Calm     72 % 0 mm
20:04 17.6 °C 12.4 °C 1008.7 hPa Calm     72 % 0 mm
20:09 17.4 °C 12.6 °C 1008.7 hPa Calm     73 % 0 mm
20:14 17.3 °C 12.7 °C 1008.7 hPa Calm     74 % 0 mm
20:19 17.2 °C 12.6 °C 1009 hPa Calm     74 % 0 mm
20:24 17.1 °C 12.4 °C 1009 hPa Calm     74 % 0 mm
20:29 16.9 °C 12.5 °C 1009 hPa Calm     75 % 0 mm
20:34 16.8 °C 12.3 °C 1009 hPa Calm     75 % 0 mm
20:39 16.7 °C 12.4 °C 1009 hPa Calm     76 % 0 mm
20:44 16.5 °C 12.3 °C 1009 hPa Calm     76 % 0 mm
20:49 16.4 °C 12.4 °C 1009 hPa Calm     77 % 0 mm
20:54 16.4 °C 12.4 °C 1009 hPa Calm     77 % 0 mm
20:59 16.4 °C 12.3 °C 1009 hPa Calm     77 % 0 mm
21:04 16.3 °C 12.4 °C 1009.4 hPa Calm     78 % 0 mm
21:09 16.1 °C 12.3 °C 1009.4 hPa Calm     78 % 0 mm
21:14 15.9 °C 12.2 °C 1009.4 hPa Calm     79 % 0 mm
21:19 15.7 °C 12.1 °C 1009.4 hPa Calm     79 % 0 mm
21:24 15.6 °C 12 °C 1009.4 hPa Calm     79 % 0 mm
21:29 15.5 °C 11.9 °C 1009.7 hPa Calm     79 % 0 mm
21:34 15.4 °C 11.8 °C 1009.7 hPa Calm     79 % 0 mm
21:39 15.4 °C 11.9 °C 1009.7 hPa Calm     80 % 0 mm
21:44 15.3 °C 12.1 °C 1009.7 hPa Calm     81 % 0 mm
21:49 15.2 °C 11.9 °C 1009.7 hPa Calm     81 % 0 mm
21:54 15.1 °C 12 °C 1009.7 hPa Calm     82 % 0 mm
21:59 14.9 °C 11.9 °C 1009.7 hPa Calm     82 % 0 mm
22:04 14.9 °C 11.8 °C 1009.7 hPa Calm     82 % 0 mm
22:09 14.8 °C 12.2 °C 1009.7 hPa Calm     84 % 0 mm
22:14 14.8 °C 11.9 °C 1010 hPa Calm     83 % 0 mm
22:19 14.7 °C 11.8 °C 1010 hPa Calm     83 % 0 mm
22:24 14.7 °C 12.2 °C 1010 hPa Calm     85 % 0 mm
22:29 14.8 °C 12.3 °C 1010 hPa Calm     85 % 0 mm
22:34 14.8 °C 12.3 °C 1010 hPa Calm     85 % 0 mm
22:39 14.8 °C 12.3 °C 1010 hPa Calm     85 % 0 mm
22:44 14.8 °C 12.3 °C 1010 hPa Calm     85 % 0 mm
22:49 14.8 °C 12.1 °C 1010 hPa Calm     84 % 0 mm
22:54 14.8 °C 11.9 °C 1010 hPa Calm     83 % 0 mm
22:59 14.7 °C 12.1 °C 1010 hPa Calm     84 % 0 mm
23:04 14.7 °C 12 °C 1010 hPa Calm     84 % 0 mm
23:09 14.6 °C 11.9 °C 1010 hPa Calm     84 % 0 mm
23:14 14.6 °C 12.1 °C 1010.4 hPa Calm     85 % 0 mm
23:19 14.6 °C 11.9 °C 1010.4 hPa Calm     84 % 0 mm
23:24 14.7 °C 12 °C 1010 hPa Calm     84 % 0 mm
23:29 14.7 °C 12 °C 1010 hPa Calm     84 % 0 mm
23:34 14.6 °C 12.1 °C 1010 hPa Calm     85 % 0 mm
23:39 14.6 °C 12.1 °C 1010 hPa Calm     85 % 0 mm
23:44 14.3 °C 11.7 °C 1010 hPa Calm     84 % 0 mm
23:49 14.2 °C 11.7 °C 1010 hPa Calm     85 % 0 mm
23:54 14.2 °C 11.8 °C 1010 hPa Calm     86 % 0 mm
23:59 14.1 °C 11.7 °C 1010 hPa Calm     86 % 0 mm
Park Place, Exeter, Tulare County, California, USA
Compliments of Weather Underground - 2.75 mb